Terminal Aerodrome Forecast
Issued by NWS Blacksburg, VA

Current Version | Previous Version | Graphics & Text | Print | Product List | Glossary On
Versions: 1 2 3 4 5 6 7 8 9 10 11 12 13 14 15 16 17 18 19
000
FTUS41 KRNK 131739
TAFBLF
TAF
KBLF 131739Z 1318/1418 23008KT P6SM SCT250
     FM132000 19010G17KT P6SM SCT250
     FM140000 18009KT P6SM SCT150
     FM140700 17010G19KT P6SM SCT020 BKN100
     FM141200 17010KT P6SM SCT020 OVC100=

USA.gov is the U.S. government's official web portal to all federal, state and local government web resources and services.